Time;durP1;ratioP1;P1;durP2;ratioP2;P2;SDS_P1;SDS_P2;PMS_P1;PMS_P2;Temp;Humidity;BMP_temperature;BMP_pressure;BME280_temperature;BME280_humidity;BME280_pressure;Samples;Min_cycle;Max_cycle;Signal;HPM_P1;HPM_P2
2021/07/17 00:00:39;;;;;;;36.53;7.28;;;;;;;;;;5058814;28;20032;-60
2021/07/17 00:03:05;;;;;;;24.77;6.03;;;;;;;;;;5057606;28;20103;-61
2021/07/17 00:05:34;;;;;;;36.13;6.65;;;;;;;;;;5049053;28;20044;-61
2021/07/17 00:08:02;;;;;;;41.30;6.65;;;;;;;;;;5075186;28;20035;-60
2021/07/17 00:10:49;;;;;;;34.25;6.25;;;;;;;;;;5044134;28;20039;-59
2021/07/17 00:13:15;;;;;;;37.83;7.13;;;;;;;;;;5074684;28;20042;-60
2021/07/17 00:15:43;;;;;;;39.05;6.88;;;;;;;;;;5075511;28;20042;-61
2021/07/17 00:18:09;;;;;;;34.53;6.70;;;;;;;;;;5055672;28;20016;-59
2021/07/17 00:20:34;;;;;;;28.02;6.05;;;;;;;;;;5059273;28;20536;-60
2021/07/17 00:23:00;;;;;;;23.77;5.93;;;;;;;;;;5072776;28;21925;-60
2021/07/17 00:25:26;;;;;;;28.38;5.80;;;;;;;;;;5055084;28;20043;-60
2021/07/17 00:27:54;;;;;;;34.85;6.55;;;;;;;;;;5074214;28;20791;-61
2021/07/17 00:30:20;;;;;;;23.88;5.90;;;;;;;;;;5073593;28;20049;-60
2021/07/17 00:32:48;;;;;;;23.55;5.53;;;;;;;;;;5067799;28;20039;-60
2021/07/17 00:35:14;;;;;;;18.27;5.40;;;;;;;;;;5073393;28;20032;-60
2021/07/17 00:37:42;;;;;;;19.02;5.30;;;;;;;;;;5058781;28;20117;-60
2021/07/17 00:40:09;;;;;;;25.92;5.13;;;;;;;;;;5073716;28;20047;-60
2021/07/17 00:42:37;;;;;;;29.27;5.78;;;;;;;;;;5072430;28;20151;-60
2021/07/17 00:45:03;;;;;;;22.48;4.72;;;;;;;;;;5072371;28;20221;-60
2021/07/17 00:47:29;;;;;;;20.55;5.10;;;;;;;;;;5059202;28;22136;-60
2021/07/17 00:49:59;;;;;;;39.38;5.57;;;;;;;;;;5073540;28;20024;-61
2021/07/17 00:52:25;;;;;;;22.27;5.82;;;;;;;;;;5074103;28;20030;-61
2021/07/17 00:54:51;;;;;;;23.63;5.40;;;;;;;;;;5070000;28;20047;-59
2021/07/17 00:57:17;;;;;;;24.45;5.35;;;;;;;;;;5073737;28;20861;-60
2021/07/17 00:59:46;;;;;;;21.73;5.63;;;;;;;;;;5041376;28;20042;-60
2021/07/17 01:02:17;;;;;;;15.65;4.85;;;;;;;;;;5072321;28;20668;-61
2021/07/17 01:04:46;;;;;;;31.95;5.45;;;;;;;;;;5057632;28;20118;-60
2021/07/17 01:07:12;;;;;;;19.92;4.68;;;;;;;;;;5063876;28;20625;-60
2021/07/17 01:09:39;;;;;;;19.33;5.20;;;;;;;;;;5075229;28;20057;-61
2021/07/17 01:12:07;;;;;;;23.23;5.10;;;;;;;;;;5054843;28;20027;-61
2021/07/17 01:14:32;;;;;;;20.85;5.18;;;;;;;;;;5046944;28;20099;-59
2021/07/17 01:17:03;;;;;;;25.67;5.30;;;;;;;;;;5073854;28;20028;-60
2021/07/17 01:19:33;;;;;;;29.85;4.80;;;;;;;;;;5057566;28;20028;-60
2021/07/17 01:22:01;;;;;;;18.90;4.63;;;;;;;;;;5054221;28;20040;-60
2021/07/17 01:24:32;;;;;;;18.83;4.75;;;;;;;;;;5073128;28;20089;-60
2021/07/17 01:26:58;;;;;;;33.42;5.65;;;;;;;;;;5073897;28;20039;-61
2021/07/17 01:29:26;;;;;;;34.28;6.75;;;;;;;;;;5072406;28;20039;-61
2021/07/17 01:31:52;;;;;;;33.15;5.22;;;;;;;;;;5060907;28;20053;-61
2021/07/17 01:34:20;;;;;;;29.48;4.80;;;;;;;;;;5063818;28;20031;-59
2021/07/17 01:36:46;;;;;;;36.47;5.82;;;;;;;;;;5073313;28;20092;-60
2021/07/17 01:39:12;;;;;;;37.42;6.28;;;;;;;;;;5066985;28;20039;-61
2021/07/17 01:41:40;;;;;;;21.42;3.88;;;;;;;;;;5061536;28;20032;-61
2021/07/17 01:44:08;;;;;;;24.60;4.03;;;;;;;;;;5054255;28;20774;-60
2021/07/17 01:46:37;;;;;;;19.48;4.57;;;;;;;;;;5055479;28;20044;-61
2021/07/17 01:49:05;;;;;;;25.48;5.40;;;;;;;;;;5054298;28;20123;-60
2021/07/17 01:51:31;;;;;;;19.15;4.05;;;;;;;;;;5024777;28;20044;-60
2021/07/17 01:53:57;;;;;;;31.27;4.55;;;;;;;;;;5072438;28;20070;-61
2021/07/17 01:56:25;;;;;;;28.33;4.25;;;;;;;;;;5061553;28;20169;-60
2021/07/17 01:58:56;;;;;;;25.67;5.53;;;;;;;;;;5048146;28;20563;-59
2021/07/17 02:01:25;;;;;;;21.48;4.53;;;;;;;;;;5052262;28;20036;-59
2021/07/17 02:03:51;;;;;;;20.00;4.50;;;;;;;;;;5073289;28;20108;-59
2021/07/17 02:06:24;;;;;;;29.38;5.80;;;;;;;;;;5072318;28;20028;-61
2021/07/17 02:08:49;;;;;;;17.90;4.80;;;;;;;;;;5071265;28;20028;-59
2021/07/17 02:11:14;;;;;;;19.75;4.75;;;;;;;;;;5058953;28;20490;-61
2021/07/17 02:13:42;;;;;;;17.50;4.13;;;;;;;;;;5071242;28;20048;-60
2021/07/17 02:16:08;;;;;;;18.48;4.22;;;;;;;;;;5072305;28;20032;-61
2021/07/17 02:18:34;;;;;;;22.95;4.10;;;;;;;;;;5040272;28;20032;-61
2021/07/17 02:21:01;;;;;;;12.15;4.07;;;;;;;;;;5057309;28;20152;-61
2021/07/17 02:23:30;;;;;;;15.05;4.20;;;;;;;;;;5073407;28;20059;-60
2021/07/17 02:25:55;;;;;;;22.58;4.35;;;;;;;;;;5074042;28;21130;-59
2021/07/17 02:28:21;;;;;;;19.55;4.63;;;;;;;;;;5065069;28;20035;-59
2021/07/17 02:30:49;;;;;;;26.23;4.68;;;;;;;;;;5074472;28;20036;-59
2021/07/17 02:33:17;;;;;;;17.15;4.15;;;;;;;;;;5054653;28;21030;-60
2021/07/17 02:35:45;;;;;;;13.10;3.97;;;;;;;;;;5075861;28;20047;-61
2021/07/17 02:38:13;;;;;;;18.40;3.80;;;;;;;;;;5075633;28;20039;-59
2021/07/17 02:40:42;;;;;;;22.90;4.70;;;;;;;;;;5077093;28;21928;-60
2021/07/17 02:43:10;;;;;;;26.35;5.22;;;;;;;;;;5062649;28;20016;-60
2021/07/17 02:45:35;;;;;;;16.05;4.45;;;;;;;;;;5077050;28;20024;-60
2021/07/17 02:48:03;;;;;;;26.98;4.13;;;;;;;;;;5076202;28;20036;-59
2021/07/17 02:50:31;;;;;;;13.15;3.90;;;;;;;;;;5073895;28;20046;-59
2021/07/17 02:52:59;;;;;;;21.83;4.05;;;;;;;;;;5040618;28;20743;-60
2021/07/17 02:55:27;;;;;;;14.75;3.47;;;;;;;;;;5058439;28;20407;-59
2021/07/17 02:57:52;;;;;;;21.10;4.10;;;;;;;;;;5073242;28;20096;-59
2021/07/17 03:00:22;;;;;;;26.00;4.75;;;;;;;;;;5073469;28;20344;-60
2021/07/17 03:02:48;;;;;;;23.80;3.78;;;;;;;;;;5055421;28;20109;-61
2021/07/17 03:05:13;;;;;;;17.65;4.28;;;;;;;;;;5075178;28;20073;-59
2021/07/17 03:07:39;;;;;;;22.15;3.88;;;;;;;;;;5057513;28;20116;-60
2021/07/17 03:10:07;;;;;;;26.15;4.25;;;;;;;;;;5063672;28;22240;-60
2021/07/17 03:12:35;;;;;;;16.98;3.65;;;;;;;;;;5057118;28;20040;-59
2021/07/17 03:15:00;;;;;;;24.65;3.90;;;;;;;;;;5028272;28;20040;-59
2021/07/17 03:17:25;;;;;;;24.38;3.67;;;;;;;;;;5059045;28;20044;-59
2021/07/17 03:19:51;;;;;;;22.52;3.58;;;;;;;;;;5053044;28;20042;-59
2021/07/17 03:22:18;;;;;;;16.13;3.63;;;;;;;;;;5055655;28;20803;-59
2021/07/17 03:24:45;;;;;;;20.33;4.30;;;;;;;;;;5075935;28;20126;-58
2021/07/17 03:27:10;;;;;;;16.83;3.90;;;;;;;;;;5075737;28;21107;-60
2021/07/17 03:29:39;;;;;;;17.48;3.65;;;;;;;;;;5056950;28;20028;-59
2021/07/17 03:32:07;;;;;;;16.17;4.03;;;;;;;;;;5057421;28;20043;-58
2021/07/17 03:34:33;;;;;;;21.88;4.97;;;;;;;;;;5074110;28;20035;-59
2021/07/17 03:36:58;;;;;;;30.10;4.28;;;;;;;;;;5054737;28;20036;-59
2021/07/17 03:39:26;;;;;;;21.17;3.95;;;;;;;;;;5075615;28;20032;-59
2021/07/17 03:41:51;;;;;;;22.45;3.67;;;;;;;;;;5056350;28;20064;-58
2021/07/17 03:44:23;;;;;;;16.08;4.18;;;;;;;;;;5053683;28;20035;-59
2021/07/17 03:46:49;;;;;;;15.68;3.00;;;;;;;;;;5061616;28;20028;-59
2021/07/17 03:49:15;;;;;;;24.83;4.60;;;;;;;;;;5074741;28;20547;-61
2021/07/17 03:51:40;;;;;;;23.30;4.22;;;;;;;;;;5074560;28;20036;-59
2021/07/17 03:54:06;;;;;;;19.58;3.08;;;;;;;;;;5044406;28;20055;-59
2021/07/17 03:56:33;;;;;;;24.48;3.65;;;;;;;;;;5071054;28;21998;-59
2021/07/17 03:58:58;;;;;;;26.55;3.78;;;;;;;;;;5053038;28;20777;-61
2021/07/17 04:01:24;;;;;;;14.10;3.58;;;;;;;;;;5039474;28;20069;-59
2021/07/17 04:03:51;;;;;;;22.02;3.72;;;;;;;;;;5054753;28;20032;-60
2021/07/17 04:06:19;;;;;;;17.77;3.50;;;;;;;;;;5053434;28;20137;-58
2021/07/17 04:08:47;;;;;;;23.08;3.53;;;;;;;;;;5052510;28;20047;-59
2021/07/17 04:11:15;;;;;;;26.92;3.83;;;;;;;;;;5053241;28;20024;-58
2021/07/17 04:13:43;;;;;;;21.23;3.45;;;;;;;;;;5055347;28;20037;-60
2021/07/17 04:16:08;;;;;;;22.20;3.78;;;;;;;;;;5052998;28;20129;-58
2021/07/17 04:18:36;;;;;;;15.88;3.55;;;;;;;;;;5061490;28;20040;-59
2021/07/17 04:21:05;;;;;;;26.70;4.18;;;;;;;;;;5053952;28;20478;-58
2021/07/17 04:23:33;;;;;;;18.98;4.07;;;;;;;;;;5054895;28;20075;-60
2021/07/17 04:25:59;;;;;;;22.15;3.03;;;;;;;;;;5054198;28;20029;-59
2021/07/17 04:28:26;;;;;;;20.73;3.70;;;;;;;;;;5056869;28;20035;-59
2021/07/17 04:30:52;;;;;;;15.20;3.03;;;;;;;;;;5052329;28;20082;-60
2021/07/17 04:33:18;;;;;;;23.85;4.25;;;;;;;;;;5058689;28;20192;-60
2021/07/17 04:35:43;;;;;;;15.15;4.07;;;;;;;;;;5061637;28;20583;-60
2021/07/17 04:38:11;;;;;;;14.73;4.07;;;;;;;;;;5050965;28;20115;-59
2021/07/17 04:40:38;;;;;;;19.95;3.55;;;;;;;;;;5051988;28;20052;-60
2021/07/17 04:43:04;;;;;;;19.80;4.10;;;;;;;;;;5051129;28;20237;-59
2021/07/17 04:45:32;;;;;;;12.95;3.70;;;;;;;;;;5055490;28;20027;-59
2021/07/17 04:47:58;;;;;;;16.25;3.25;;;;;;;;;;5061310;28;20032;-59
2021/07/17 04:50:26;;;;;;;19.83;3.97;;;;;;;;;;5067845;28;20033;-60
2021/07/17 04:52:52;;;;;;;18.27;3.42;;;;;;;;;;5051774;28;20040;-59
2021/07/17 04:55:22;;;;;;;18.48;3.55;;;;;;;;;;5034368;28;20079;-59
2021/07/17 04:57:47;;;;;;;14.13;3.70;;;;;;;;;;5052247;28;20033;-60
2021/07/17 05:00:13;;;;;;;14.23;3.15;;;;;;;;;;5057011;28;20118;-59
2021/07/17 05:02:46;;;;;;;22.13;3.28;;;;;;;;;;5050575;28;20032;-59
2021/07/17 05:05:12;;;;;;;16.45;3.10;;;;;;;;;;5051730;28;20036;-59
2021/07/17 05:07:37;;;;;;;19.00;3.80;;;;;;;;;;5054161;28;20029;-60
2021/07/17 05:10:02;;;;;;;20.05;3.45;;;;;;;;;;5053646;28;20032;-60
2021/07/17 05:12:30;;;;;;;11.32;3.13;;;;;;;;;;5050843;28;21079;-60
2021/07/17 05:14:58;;;;;;;19.98;3.17;;;;;;;;;;5051541;28;20066;-60
2021/07/17 05:17:29;;;;;;;15.95;2.97;;;;;;;;;;5053717;28;20024;-60
2021/07/17 05:19:54;;;;;;;17.15;2.47;;;;;;;;;;5041197;28;20062;-60
2021/07/17 05:22:22;;;;;;;17.80;3.47;;;;;;;;;;5052688;28;20035;-60
2021/07/17 05:24:50;;;;;;;14.80;2.83;;;;;;;;;;5054809;28;20075;-59
2021/07/17 05:27:18;;;;;;;13.90;2.45;;;;;;;;;;5052399;28;20028;-61
2021/07/17 05:29:47;;;;;;;7.88;2.15;;;;;;;;;;5052803;28;20049;-61
2021/07/17 05:32:13;;;;;;;8.23;2.50;;;;;;;;;;5067965;28;20471;-59
2021/07/17 05:34:41;;;;;;;13.27;2.20;;;;;;;;;;5053262;28;20070;-59
2021/07/17 05:37:07;;;;;;;11.23;2.25;;;;;;;;;;5051783;28;20028;-60
2021/07/17 05:39:36;;;;;;;12.77;2.03;;;;;;;;;;5056076;28;20039;-59
2021/07/17 05:42:03;;;;;;;9.88;1.95;;;;;;;;;;5060555;28;20555;-60
2021/07/17 05:44:29;;;;;;;7.55;2.05;;;;;;;;;;5051982;28;20021;-60
2021/07/17 05:46:55;;;;;;;14.75;2.03;;;;;;;;;;5052209;28;20044;-60
2021/07/17 05:49:20;;;;;;;7.68;1.83;;;;;;;;;;5053056;28;20137;-60
2021/07/17 05:51:49;;;;;;;8.45;1.73;;;;;;;;;;5052097;28;20174;-61
2021/07/17 05:54:18;;;;;;;7.18;2.03;;;;;;;;;;5059194;28;21027;-60
2021/07/17 05:56:44;;;;;;;8.88;1.85;;;;;;;;;;5054002;28;20067;-59
2021/07/17 05:59:10;;;;;;;10.43;1.90;;;;;;;;;;5051305;28;20039;-59
2021/07/17 06:01:38;;;;;;;10.52;1.80;;;;;;;;;;5058708;28;20039;-61
2021/07/17 06:04:05;;;;;;;10.18;2.03;;;;;;;;;;5056610;28;20064;-61
2021/07/17 06:06:35;;;;;;;14.93;2.25;;;;;;;;;;5072631;28;20297;-61
2021/07/17 06:09:01;;;;;;;10.18;2.03;;;;;;;;;;5058798;28;20040;-62
2021/07/17 06:11:29;;;;;;;13.23;2.08;;;;;;;;;;5054814;28;20116;-60
2021/07/17 06:13:55;;;;;;;11.80;2.30;;;;;;;;;;5055563;28;20057;-59
2021/07/17 06:16:25;;;;;;;13.73;2.08;;;;;;;;;;5055968;28;20072;-60
2021/07/17 06:18:50;;;;;;;12.60;2.35;;;;;;;;;;5043929;28;20037;-61
2021/07/17 06:21:18;;;;;;;15.50;2.40;;;;;;;;;;5063292;28;20036;-61
2021/07/17 06:23:46;;;;;;;9.20;2.05;;;;;;;;;;5071619;28;20047;-60
2021/07/17 06:26:11;;;;;;;18.05;2.28;;;;;;;;;;5057188;28;20455;-61
2021/07/17 06:28:37;;;;;;;10.13;2.03;;;;;;;;;;5054585;28;20069;-60
2021/07/17 06:31:03;;;;;;;9.45;1.80;;;;;;;;;;5045989;28;20024;-62
2021/07/17 06:33:34;;;;;;;6.07;1.63;;;;;;;;;;5059323;28;20039;-61
2021/07/17 06:36:00;;;;;;;14.45;2.17;;;;;;;;;;5056127;28;20082;-60
2021/07/17 06:38:26;;;;;;;12.75;1.90;;;;;;;;;;5056780;28;20028;-62
2021/07/17 06:40:53;;;;;;;7.85;2.13;;;;;;;;;;5051973;28;20032;-62
2021/07/17 06:43:19;;;;;;;10.50;1.67;;;;;;;;;;5055634;28;20034;-60
2021/07/17 06:45:45;;;;;;;5.80;1.60;;;;;;;;;;5056965;28;20028;-60
2021/07/17 06:48:12;;;;;;;9.40;1.92;;;;;;;;;;5055769;28;20058;-60
2021/07/17 06:50:40;;;;;;;10.23;2.22;;;;;;;;;;5057404;28;20044;-60
2021/07/17 06:53:08;;;;;;;13.65;2.55;;;;;;;;;;5063200;28;20050;-60
2021/07/17 06:55:37;;;;;;;8.43;1.80;;;;;;;;;;5064101;28;20162;-59
2021/07/17 06:58:04;;;;;;;7.93;1.80;;;;;;;;;;5059888;28;20508;-59
2021/07/17 07:00:33;;;;;;;10.45;2.00;;;;;;;;;;5057057;28;20025;-60
2021/07/17 07:02:59;;;;;;;7.97;2.05;;;;;;;;;;5075422;28;20023;-60
2021/07/17 07:05:25;;;;;;;6.93;1.63;;;;;;;;;;5059337;27;20063;-60
2021/07/17 07:07:54;;;;;;;7.45;1.48;;;;;;;;;;5076115;28;20131;-61
2021/07/17 07:10:50;;;;;;;8.48;1.73;;;;;;;;;;5076369;28;20048;-60
2021/07/17 07:13:19;;;;;;;8.02;1.38;;;;;;;;;;5050511;28;22042;-60
2021/07/17 07:15:45;;;;;;;8.68;1.40;;;;;;;;;;5075741;27;20111;-61
2021/07/17 07:18:14;;;;;;;7.00;1.33;;;;;;;;;;5064609;28;20051;-60
2021/07/17 07:20:43;;;;;;;7.35;1.38;;;;;;;;;;5071606;28;20028;-61
2021/07/17 07:23:08;;;;;;;8.23;1.80;;;;;;;;;;5076774;28;20027;-60
2021/07/17 07:25:36;;;;;;;4.13;1.45;;;;;;;;;;5075385;28;20746;-61
2021/07/17 07:28:02;;;;;;;6.70;1.65;;;;;;;;;;5047318;28;20049;-61
2021/07/17 07:30:29;;;;;;;10.13;1.50;;;;;;;;;;5075717;28;20112;-60
2021/07/17 07:32:55;;;;;;;11.00;1.40;;;;;;;;;;5062969;28;20064;-60
2021/07/17 07:35:21;;;;;;;9.85;1.50;;;;;;;;;;5075062;28;20036;-60
2021/07/17 07:37:48;;;;;;;11.77;1.75;;;;;;;;;;5075077;28;20040;-60
2021/07/17 07:40:14;;;;;;;6.88;1.70;;;;;;;;;;5060804;28;20077;-61
2021/07/17 07:42:42;;;;;;;5.93;1.25;;;;;;;;;;5057336;28;20036;-60
2021/07/17 07:45:09;;;;;;;12.82;2.08;;;;;;;;;;5072340;28;20040;-60
2021/07/17 07:47:34;;;;;;;7.20;1.15;;;;;;;;;;5057581;28;20020;-60
2021/07/17 07:50:00;;;;;;;8.27;1.42;;;;;;;;;;5064219;28;20981;-60
2021/07/17 07:52:28;;;;;;;5.78;1.40;;;;;;;;;;5072752;28;20032;-61
2021/07/17 07:54:55;;;;;;;5.75;1.48;;;;;;;;;;5074742;28;20901;-60
2021/07/17 07:57:24;;;;;;;4.85;1.27;;;;;;;;;;5074414;28;20070;-59
2021/07/17 07:59:53;;;;;;;3.28;1.05;;;;;;;;;;5056993;28;20120;-61
2021/07/17 08:02:18;;;;;;;8.38;1.20;;;;;;;;;;5043008;28;20046;-61
2021/07/17 08:04:47;;;;;;;5.35;1.50;;;;;;;;;;5045109;28;21055;-61
2021/07/17 08:07:13;;;;;;;6.65;1.33;;;;;;;;;;5059175;28;20115;-61
2021/07/17 08:09:38;;;;;;;4.80;1.33;;;;;;;;;;5060033;28;20031;-61
2021/07/17 08:12:04;;;;;;;4.70;1.20;;;;;;;;;;5073382;28;20028;-61
2021/07/17 08:14:32;;;;;;;5.35;1.08;;;;;;;;;;5056165;28;20713;-60
2021/07/17 08:17:02;;;;;;;5.43;0.90;;;;;;;;;;5066101;28;20031;-62
2021/07/17 08:19:28;;;;;;;5.25;1.08;;;;;;;;;;5041666;28;20092;-60
2021/07/17 08:21:54;;;;;;;4.15;1.10;;;;;;;;;;5075699;28;20031;-61
2021/07/17 08:24:22;;;;;;;6.18;1.73;;;;;;;;;;5056590;28;20087;-61
2021/07/17 08:26:50;;;;;;;5.00;1.17;;;;;;;;;;5055664;28;22636;-61
2021/07/17 08:29:16;;;;;;;6.95;1.15;;;;;;;;;;5073345;27;20042;-60
2021/07/17 08:31:43;;;;;;;5.53;1.00;;;;;;;;;;5063754;28;20103;-61
2021/07/17 08:34:11;;;;;;;3.17;1.30;;;;;;;;;;5036772;28;20032;-61
2021/07/17 08:36:37;;;;;;;7.68;1.05;;;;;;;;;;5073340;28;20036;-61
2021/07/17 08:39:03;;;;;;;2.30;1.05;;;;;;;;;;5054445;28;20035;-62
2021/07/17 08:41:34;;;;;;;5.50;0.90;;;;;;;;;;5076094;28;20080;-62
2021/07/17 08:44:02;;;;;;;3.25;0.93;;;;;;;;;;5070198;28;20048;-62
2021/07/17 08:46:30;;;;;;;1.23;0.73;;;;;;;;;;5056640;28;20024;-62
2021/07/17 08:48:58;;;;;;;6.25;1.40;;;;;;;;;;5053026;28;20620;-62
2021/07/17 08:51:23;;;;;;;4.72;1.30;;;;;;;;;;5074568;28;20105;-61
2021/07/17 08:53:49;;;;;;;4.30;0.82;;;;;;;;;;5043466;28;20906;-61
2021/07/17 08:56:15;;;;;;;5.47;1.00;;;;;;;;;;5053897;28;20032;-61
2021/07/17 08:58:43;;;;;;;4.28;0.85;;;;;;;;;;5054868;28;20414;-61
2021/07/17 09:01:15;;;;;;;6.88;1.17;;;;;;;;;;5051976;28;20412;-61
2021/07/17 09:03:42;;;;;;;3.17;0.82;;;;;;;;;;5043677;28;20035;-62
2021/07/17 09:06:12;;;;;;;2.88;0.88;;;;;;;;;;5054781;28;20058;-61
2021/07/17 09:08:40;;;;;;;7.32;1.33;;;;;;;;;;5053452;28;20589;-62
2021/07/17 09:11:06;;;;;;;3.45;1.02;;;;;;;;;;5068874;28;20036;-61
2021/07/17 09:13:36;;;;;;;6.32;1.20;;;;;;;;;;5053434;28;20035;-62
2021/07/17 09:16:08;;;;;;;2.03;0.65;;;;;;;;;;5054447;28;20028;-62
2021/07/17 09:18:50;;;;;;;6.18;1.38;;;;;;;;;;5051562;28;20496;-62
2021/07/17 09:21:17;;;;;;;2.28;0.80;;;;;;;;;;5050465;28;20111;-61
2021/07/17 09:23:46;;;;;;;6.18;1.20;;;;;;;;;;5053651;28;20058;-62
2021/07/17 09:26:21;;;;;;;5.82;1.10;;;;;;;;;;5053286;28;22096;-62
2021/07/17 09:28:57;;;;;;;4.25;1.15;;;;;;;;;;5065101;28;20038;-61
2021/07/17 09:31:24;;;;;;;8.73;1.17;;;;;;;;;;5054647;28;20024;-62
2021/07/17 09:33:50;;;;;;;5.70;1.38;;;;;;;;;;5060867;28;20040;-63
2021/07/17 09:36:18;;;;;;;3.67;0.90;;;;;;;;;;5056436;28;20047;-63
2021/07/17 09:38:50;;;;;;;5.30;1.35;;;;;;;;;;5057770;28;20066;-62
2021/07/17 09:41:17;;;;;;;5.50;1.38;;;;;;;;;;5055806;28;20028;-61
2021/07/17 09:43:45;;;;;;;1.88;1.00;;;;;;;;;;5054762;28;20070;-62
2021/07/17 09:46:16;;;;;;;1.85;0.52;;;;;;;;;;5055897;28;20029;-63
2021/07/17 09:48:46;;;;;;;4.00;0.70;;;;;;;;;;5062895;28;20029;-62
2021/07/17 09:51:15;;;;;;;5.18;1.10;;;;;;;;;;5057024;28;20116;-63
2021/07/17 09:53:48;;;;;;;1.65;0.40;;;;;;;;;;5058711;28;20036;-61
2021/07/17 09:56:18;;;;;;;4.25;0.90;;;;;;;;;;5077823;28;20043;-62
2021/07/17 09:58:44;;;;;;;1.98;0.70;;;;;;;;;;5059477;28;20462;-63
2021/07/17 10:01:13;;;;;;;3.15;0.68;;;;;;;;;;5076020;28;20015;-63
2021/07/17 10:03:41;;;;;;;4.03;0.77;;;;;;;;;;5042228;28;20027;-63
2021/07/17 10:06:07;;;;;;;4.38;0.95;;;;;;;;;;5075202;27;20182;-63
2021/07/17 10:08:36;;;;;;;3.35;0.63;;;;;;;;;;5076267;28;20479;-63
2021/07/17 10:14:16;;;;;;;2.00;0.55;;;;;;;;;;5073188;28;20028;-63
2021/07/17 10:16:45;;;;;;;5.63;0.70;;;;;;;;;;5060936;28;20172;-63
2021/07/17 10:19:13;;;;;;;2.10;0.57;;;;;;;;;;5062821;28;20043;-64
2021/07/17 10:21:41;;;;;;;3.80;0.70;;;;;;;;;;5076201;28;20840;-64
2021/07/17 10:24:10;;;;;;;3.15;1.10;;;;;;;;;;5074923;28;20020;-62
2021/07/17 10:26:38;;;;;;;3.08;0.70;;;;;;;;;;5075469;28;20032;-62
2021/07/17 10:29:07;;;;;;;3.20;1.05;;;;;;;;;;5076378;28;20036;-63
2021/07/17 10:31:38;;;;;;;3.47;0.95;;;;;;;;;;5061857;28;20024;-63
2021/07/17 10:34:06;;;;;;;1.90;0.60;;;;;;;;;;5075849;28;20044;-66
2021/07/17 10:36:54;;;;;;;2.03;0.70;;;;;;;;;;5076668;28;20027;-62
2021/07/17 10:39:35;;;;;;;2.13;0.52;;;;;;;;;;5077502;28;20035;-61
2021/07/17 10:42:09;;;;;;;2.50;0.60;;;;;;;;;;5076333;28;20110;-61
2021/07/17 10:44:40;;;;;;;3.40;0.70;;;;;;;;;;5057849;28;20075;-63
2021/07/17 10:47:07;;;;;;;3.47;0.77;;;;;;;;;;5058969;28;20107;-63
2021/07/17 10:49:37;;;;;;;2.42;0.65;;;;;;;;;;5075625;28;20028;-62
2021/07/17 10:52:06;;;;;;;3.97;1.10;;;;;;;;;;5077531;28;20119;-63
2021/07/17 10:54:33;;;;;;;2.88;0.57;;;;;;;;;;5076157;28;20073;-62
2021/07/17 10:57:01;;;;;;;4.22;0.95;;;;;;;;;;5077003;28;20032;-63
2021/07/17 10:59:32;;;;;;;1.35;0.40;;;;;;;;;;5075381;28;20059;-62
2021/07/17 11:02:02;;;;;;;2.28;0.52;;;;;;;;;;5077434;28;20028;-62
2021/07/17 11:04:46;;;;;;;1.88;0.55;;;;;;;;;;5076531;28;20045;-63
2021/07/17 11:07:18;;;;;;;2.03;0.60;;;;;;;;;;5073721;28;20040;-62
2021/07/17 11:09:46;;;;;;;3.00;0.60;;;;;;;;;;5073569;28;20126;-63
2021/07/17 11:12:21;;;;;;;2.13;0.50;;;;;;;;;;5058867;28;20028;-64
2021/07/17 11:14:49;;;;;;;0.73;0.50;;;;;;;;;;5058117;28;21568;-62
2021/07/17 11:17:33;;;;;;;2.72;0.70;;;;;;;;;;5076055;28;20039;-62
2021/07/17 11:20:15;;;;;;;3.38;0.63;;;;;;;;;;5075987;28;20043;-62
2021/07/17 11:22:43;;;;;;;3.88;0.68;;;;;;;;;;5064671;28;20103;-63
2021/07/17 11:25:08;;;;;;;2.65;0.95;;;;;;;;;;5075512;28;20031;-63
2021/07/17 11:27:40;;;;;;;5.10;0.93;;;;;;;;;;5055069;28;20081;-63
2021/07/17 11:30:16;;;;;;;1.95;0.50;;;;;;;;;;5075884;28;20034;-63
2021/07/17 11:33:00;;;;;;;2.47;0.40;;;;;;;;;;5076380;28;20046;-61
2021/07/17 11:35:26;;;;;;;2.47;0.55;;;;;;;;;;5076061;28;20070;-61
2021/07/17 11:37:57;;;;;;;5.32;0.63;;;;;;;;;;5046707;28;20028;-62
2021/07/17 11:40:22;;;;;;;1.98;0.52;;;;;;;;;;5074999;28;20167;-62
2021/07/17 11:42:49;;;;;;;3.83;1.15;;;;;;;;;;5072959;28;20024;-62
2021/07/17 11:45:18;;;;;;;0.77;0.52;;;;;;;;;;5073683;28;20023;-62
2021/07/17 11:47:49;;;;;;;2.17;0.68;;;;;;;;;;5059251;28;20080;-63
2021/07/17 11:50:14;;;;;;;2.65;0.60;;;;;;;;;;5075445;28;20082;-63
2021/07/17 11:52:42;;;;;;;0.93;0.40;;;;;;;;;;5040216;28;20043;-61
2021/07/17 11:55:11;;;;;;;2.30;0.70;;;;;;;;;;5056609;28;20044;-62
2021/07/17 11:57:40;;;;;;;1.25;0.60;;;;;;;;;;5074524;28;20536;-62
2021/07/17 12:00:35;;;;;;;0.60;0.40;;;;;;;;;;5073503;28;20710;-62
2021/07/17 12:03:02;;;;;;;6.22;0.82;;;;;;;;;;5073867;28;20483;-61
2021/07/17 12:05:30;;;;;;;3.22;0.95;;;;;;;;;;5075808;28;20051;-61
2021/07/17 12:07:58;;;;;;;1.65;0.30;;;;;;;;;;5057133;28;20063;-62
2021/07/17 12:10:24;;;;;;;3.97;0.50;;;;;;;;;;5056060;28;20587;-61
2021/07/17 12:12:56;;;;;;;2.35;0.47;;;;;;;;;;5074914;28;20049;-61
2021/07/17 12:15:23;;;;;;;2.03;0.50;;;;;;;;;;5059783;28;20036;-62
2021/07/17 12:18:05;;;;;;;1.95;0.50;;;;;;;;;;5061098;27;20428;-63
2021/07/17 12:20:31;;;;;;;2.03;0.47;;;;;;;;;;5048377;28;20167;-62
2021/07/17 12:22:57;;;;;;;1.95;0.40;;;;;;;;;;5037299;28;20032;-62
2021/07/17 12:25:27;;;;;;;2.17;0.50;;;;;;;;;;5051089;28;20021;-62
2021/07/17 12:27:52;;;;;;;1.60;0.40;;;;;;;;;;5050074;28;20132;-63
2021/07/17 12:30:21;;;;;;;1.08;0.63;;;;;;;;;;5052744;28;21195;-61
2021/07/17 12:32:49;;;;;;;1.67;0.73;;;;;;;;;;5056416;28;20020;-61
2021/07/17 12:35:22;;;;;;;1.77;0.50;;;;;;;;;;5051099;28;20032;-63
2021/07/17 12:37:50;;;;;;;2.05;0.32;;;;;;;;;;5050821;28;20036;-61
2021/07/17 12:40:17;;;;;;;1.95;0.57;;;;;;;;;;5037435;28;20071;-62
2021/07/17 12:42:49;;;;;;;3.25;0.60;;;;;;;;;;5038077;28;20033;-62
2021/07/17 12:45:21;;;;;;;1.48;0.52;;;;;;;;;;5055296;28;20038;-62
2021/07/17 12:47:51;;;;;;;1.52;0.57;;;;;;;;;;5049909;28;20078;-62
2021/07/17 12:50:23;;;;;;;0.55;0.40;;;;;;;;;;5050130;28;22054;-63
2021/07/17 12:53:07;;;;;;;3.90;0.50;;;;;;;;;;5048303;28;20025;-63
2021/07/17 12:55:33;;;;;;;2.60;0.57;;;;;;;;;;5047174;28;20029;-61
2021/07/17 12:57:59;;;;;;;3.08;0.57;;;;;;;;;;5048777;28;20032;-63
2021/07/17 13:00:26;;;;;;;2.60;0.55;;;;;;;;;;5035337;28;20521;-62
2021/07/17 13:02:54;;;;;;;1.90;0.47;;;;;;;;;;5044985;28;20070;-63
2021/07/17 13:05:39;;;;;;;3.90;0.60;;;;;;;;;;5049850;28;20048;-63
2021/07/17 13:08:07;;;;;;;1.25;0.50;;;;;;;;;;5048217;28;20032;-63
2021/07/17 13:10:36;;;;;;;1.00;0.50;;;;;;;;;;5055984;28;20845;-59
2021/07/17 13:13:08;;;;;;;3.40;0.52;;;;;;;;;;5052798;28;20031;-64
2021/07/17 13:15:36;;;;;;;0.90;0.40;;;;;;;;;;5051281;28;20040;-63
2021/07/17 13:18:15;;;;;;;0.90;0.47;;;;;;;;;;5048070;28;20029;-63
2021/07/17 13:20:44;;;;;;;1.80;0.82;;;;;;;;;;5049592;28;20087;-62
2021/07/17 13:23:10;;;;;;;2.63;0.50;;;;;;;;;;5048513;28;20029;-62
2021/07/17 13:25:38;;;;;;;2.03;0.57;;;;;;;;;;5050651;28;20024;-63
2021/07/17 13:28:04;;;;;;;0.50;0.25;;;;;;;;;;5049837;28;20029;-62
2021/07/17 13:30:32;;;;;;;0.80;0.38;;;;;;;;;;5035818;28;20427;-60
2021/07/17 13:33:06;;;;;;;1.33;0.65;;;;;;;;;;5036861;28;20086;-63
2021/07/17 13:35:32;;;;;;;0.95;0.50;;;;;;;;;;5041681;28;20024;-63
2021/07/17 13:38:00;;;;;;;9.60;6.63;;;;;;;;;;5033359;28;20901;-61
2021/07/17 13:40:30;;;;;;;8.70;5.40;;;;;;;;;;5040165;28;21303;-60
2021/07/17 13:43:00;;;;;;;3.53;1.10;;;;;;;;;;5035651;28;20075;-62
2021/07/17 13:45:28;;;;;;;5.03;2.03;;;;;;;;;;5019796;28;20060;-60
2021/07/17 13:47:58;;;;;;;2.42;0.80;;;;;;;;;;5037282;28;20171;-63
2021/07/17 13:50:25;;;;;;;0.95;0.40;;;;;;;;;;5037769;28;20036;-63
2021/07/17 13:52:56;;;;;;;2.63;0.40;;;;;;;;;;5036444;28;20048;-62
2021/07/17 13:55:32;;;;;;;1.35;0.50;;;;;;;;;;5039179;28;22168;-62
2021/07/17 13:58:07;;;;;;;3.63;0.73;;;;;;;;;;5050950;28;20086;-62
2021/07/17 14:00:41;;;;;;;3.00;0.70;;;;;;;;;;5034808;28;20024;-62
2021/07/17 14:03:09;;;;;;;0.75;0.50;;;;;;;;;;5035370;28;22172;-61
2021/07/17 14:05:35;;;;;;;2.30;0.55;;;;;;;;;;5035564;28;20032;-61
2021/07/17 14:08:01;;;;;;;2.28;0.80;;;;;;;;;;5034925;28;20036;-62
2021/07/17 14:10:30;;;;;;;1.38;0.43;;;;;;;;;;5035778;28;20025;-63
2021/07/17 14:13:00;;;;;;;1.83;0.55;;;;;;;;;;5033974;28;20060;-62
2021/07/17 14:15:28;;;;;;;1.38;0.60;;;;;;;;;;5033599;28;20044;-60
2021/07/17 14:17:55;;;;;;;1.02;0.38;;;;;;;;;;5033665;28;20056;-62
2021/07/17 14:20:24;;;;;;;1.00;0.77;;;;;;;;;;5033786;28;20035;-60
2021/07/17 14:22:49;;;;;;;2.45;0.60;;;;;;;;;;5035656;28;20037;-62
2021/07/17 14:25:18;;;;;;;2.97;0.63;;;;;;;;;;5035027;28;20017;-61
2021/07/17 14:27:43;;;;;;;2.38;0.40;;;;;;;;;;5034802;28;20036;-61
2021/07/17 14:30:09;;;;;;;2.58;0.40;;;;;;;;;;5033937;28;20044;-60
2021/07/17 14:32:35;;;;;;;1.88;0.50;;;;;;;;;;5033705;28;20028;-60
2021/07/17 14:35:01;;;;;;;1.15;0.63;;;;;;;;;;5035930;28;20040;-61
2021/07/17 14:37:28;;;;;;;2.50;0.43;;;;;;;;;;5018938;28;20025;-61
2021/07/17 14:39:54;;;;;;;1.98;0.40;;;;;;;;;;5033560;28;20287;-61
2021/07/17 14:42:22;;;;;;;2.08;0.43;;;;;;;;;;5038398;28;20473;-60
2021/07/17 14:44:52;;;;;;;1.00;0.35;;;;;;;;;;5034298;28;20025;-61
2021/07/17 14:47:20;;;;;;;1.52;0.50;;;;;;;;;;5037826;28;20993;-60